createdAt,value
2023-05-21T00:02:30.622Z,7.22
2023-05-21T00:07:34.653Z,6.91
2023-05-21T00:12:38.434Z,7.15
2023-05-21T00:17:43.623Z,7.30
2023-05-21T00:22:48.344Z,6.91
2023-05-21T00:27:51.985Z,6.65
2023-05-21T00:33:02.936Z,6.75
2023-05-21T00:38:08.561Z,6.49
2023-05-21T00:43:12.225Z,6.75
2023-05-21T00:48:19.537Z,6.56
2023-05-21T00:53:23.308Z,6.55
2023-05-21T00:58:33.659Z,7.05
2023-05-21T01:03:42.015Z,7.22
2023-05-21T01:08:50.971Z,6.90
2023-05-21T01:13:55.385Z,7.44
2023-05-21T01:19:04.177Z,7.47
2023-05-21T01:24:11.692Z,7.28
2023-05-21T01:29:15.941Z,7.76
2023-05-21T01:34:23.945Z,7.59
2023-05-21T01:39:41.349Z,7.48
2023-05-21T01:44:52.932Z,7.84
2023-05-21T01:49:57.860Z,7.63
2023-05-21T01:55:03.729Z,7.63
2023-05-21T02:00:09.584Z,7.94
2023-05-21T02:05:19.652Z,7.79
2023-05-21T02:10:28.499Z,7.95
2023-05-21T02:15:35.623Z,7.96
2023-05-21T02:20:39.817Z,7.59
2023-05-21T02:25:45.095Z,7.68
2023-05-21T02:30:51.063Z,7.78
2023-05-21T02:35:54.871Z,7.26
2023-05-21T02:41:00.236Z,7.59
2023-05-21T02:46:07.326Z,7.61
2023-05-21T02:51:13.475Z,7.98
2023-05-21T02:56:18.722Z,10.58
2023-05-21T03:01:22.508Z,8.36
2023-05-21T03:06:29.248Z,7.81
2023-05-21T03:11:34.662Z,8.15
2023-05-21T03:16:38.922Z,8.72
2023-05-21T03:21:45.675Z,8.18
2023-05-21T03:26:50.998Z,8.19
2023-05-21T03:31:57.768Z,8.26
2023-05-21T03:37:05.073Z,8.31
2023-05-21T03:42:11.319Z,8.27
2023-05-21T03:47:28.544Z,8.02
2023-05-21T03:52:33.354Z,8.27
2023-05-21T03:57:41.378Z,9.19
2023-05-21T04:02:49.598Z,10.78
2023-05-21T04:08:03.453Z,10.30
2023-05-21T04:13:11.230Z,8.13
2023-05-21T04:18:46.517Z,7.09
2023-05-21T04:23:57.571Z,7.50
2023-05-21T04:29:22.772Z,10.29
2023-05-21T04:34:34.160Z,7.32
2023-05-21T04:39:41.221Z,7.37
2023-05-21T04:44:48.900Z,6.81
2023-05-21T04:49:53.573Z,6.54
2023-05-21T04:55:01.455Z,9.75
2023-05-21T05:00:07.411Z,13.87
2023-05-21T05:05:19.160Z,12.54
2023-05-21T05:10:23.196Z,9.88
2023-05-21T05:15:28.786Z,7.58
2023-05-21T05:20:33.101Z,5.49
2023-05-21T05:25:39.157Z,5.12
2023-05-21T05:30:44.462Z,5.00
2023-05-21T05:35:55.573Z,4.64
2023-05-21T05:41:03.798Z,4.58
2023-05-21T05:46:08.881Z,4.72
2023-05-21T05:51:13.042Z,4.72
2023-05-21T05:56:17.274Z,4.32
2023-05-21T06:01:26.959Z,4.48
2023-05-21T06:06:31.704Z,4.66
2023-05-21T06:11:35.351Z,4.44
2023-05-21T06:16:41.147Z,4.53
2023-05-21T06:21:45.166Z,4.14
2023-05-21T06:26:51.438Z,4.25
2023-05-21T06:31:56.844Z,4.42
2023-05-21T06:37:00.786Z,4.25
2023-05-21T06:42:07.153Z,4.30
2023-05-21T06:47:25.479Z,4.22
2023-05-21T06:52:32.334Z,4.17
2023-05-21T06:57:38.821Z,4.10
2023-05-21T07:02:44.461Z,3.92
2023-05-21T07:07:48.493Z,4.02
2023-05-21T07:12:55.002Z,4.04
2023-05-21T07:18:00.872Z,3.93
2023-05-21T07:23:07.328Z,3.88
2023-05-21T07:28:12.506Z,3.81
2023-05-21T07:33:20.790Z,3.77
2023-05-21T07:38:26.265Z,4.33
2023-05-21T07:43:30.820Z,6.47
2023-05-21T07:48:44.648Z,13.34
2023-05-21T07:53:54.486Z,7.69
2023-05-21T07:59:07.124Z,9.70
2023-05-21T08:04:17.040Z,6.85
2023-05-21T08:09:21.342Z,5.80
2023-05-21T08:14:25.618Z,4.58
2023-05-21T08:19:33.055Z,3.89
2023-05-21T08:24:38.964Z,3.71
2023-05-21T08:29:43.037Z,3.37
2023-05-21T08:34:53.281Z,3.85
2023-05-21T08:40:15.888Z,3.77
2023-05-21T08:45:23.596Z,4.11
2023-05-21T08:50:29.238Z,5.20
2023-05-21T08:55:38.971Z,13.17
2023-05-21T09:00:42.793Z,19.63
2023-05-21T09:05:51.254Z,22.51
2023-05-21T09:11:04.486Z,26.16
2023-05-21T09:16:13.484Z,33.48
2023-05-21T09:21:28.606Z,22.35
2023-05-21T09:26:36.401Z,14.77
2023-05-21T09:31:46.409Z,21.75
2023-05-21T09:36:52.624Z,15.31
2023-05-21T09:41:59.014Z,11.35
2023-05-21T09:47:04.812Z,11.39
2023-05-21T09:52:09.831Z,8.00
2023-05-21T09:57:15.623Z,6.04
2023-05-21T10:02:21.305Z,5.05
2023-05-21T10:07:31.797Z,5.41
2023-05-21T10:12:36.868Z,4.59
2023-05-21T10:17:42.282Z,4.63
2023-05-21T10:22:53.123Z,3.65
2023-05-21T10:28:01.732Z,3.43
2023-05-21T10:33:09.436Z,3.64
2023-05-21T10:38:21.336Z,3.53
2023-05-21T10:43:40.116Z,3.45
2023-05-21T10:48:55.006Z,3.48
2023-05-21T10:54:13.593Z,3.52
2023-05-21T10:59:28.830Z,3.39
2023-05-21T11:04:40.272Z,3.31
2023-05-21T11:09:44.225Z,3.39
2023-05-21T11:14:59.090Z,3.26
2023-05-21T11:20:10.671Z,3.37
2023-05-21T11:25:19.946Z,3.68
2023-05-21T11:30:27.680Z,13.42
2023-05-21T11:35:31.552Z,3.94
2023-05-21T11:40:38.419Z,3.27
2023-05-21T11:45:47.357Z,3.24
2023-05-21T11:50:54.254Z,3.66
2023-05-21T11:55:59.881Z,3.47
2023-05-21T12:01:05.731Z,10.18
2023-05-21T12:06:14.441Z,5.35
2023-05-21T12:11:19.694Z,15.50
2023-05-21T12:16:27.072Z,5.70
2023-05-21T12:21:33.876Z,4.42
2023-05-21T12:26:38.143Z,3.59
2023-05-21T12:31:51.946Z,3.19
2023-05-21T12:37:01.991Z,3.57
2023-05-21T12:42:07.545Z,3.20
2023-05-21T12:47:19.588Z,3.01
2023-05-21T12:52:27.344Z,3.03
2023-05-21T12:57:37.275Z,3.01
2023-05-21T13:02:45.528Z,2.91
2023-05-21T13:07:51.675Z,6.22
2023-05-21T13:12:55.564Z,3.40
2023-05-21T13:18:04.010Z,8.64
2023-05-21T13:23:10.484Z,3.87
2023-05-21T13:28:18.710Z,3.19
2023-05-21T13:33:24.330Z,4.27
2023-05-21T13:38:28.416Z,4.86
2023-05-21T13:43:36.646Z,3.07
2023-05-21T13:48:43.373Z,3.31
2023-05-21T13:53:49.473Z,2.74
2023-05-21T13:58:53.455Z,2.95
2023-05-21T14:04:04.251Z,2.85
2023-05-21T14:09:08.531Z,2.91
2023-05-21T14:14:18.943Z,2.81
2023-05-21T14:19:24.169Z,2.95
2023-05-21T14:24:30.276Z,3.30
2023-05-21T14:29:34.356Z,3.78
2023-05-21T14:34:41.927Z,3.87
2023-05-21T14:39:48.268Z,3.03
2023-05-21T14:44:54.109Z,3.06
2023-05-21T14:49:59.125Z,3.29
2023-05-21T14:55:02.834Z,2.96
2023-05-21T15:00:09.552Z,3.18
2023-05-21T15:05:16.653Z,3.71
2023-05-21T15:10:23.048Z,3.31
2023-05-21T15:15:26.731Z,3.18
2023-05-21T15:20:36.289Z,3.53
2023-05-21T15:25:43.105Z,3.60
2023-05-21T15:30:49.498Z,3.11
2023-05-21T15:36:00.546Z,3.32
2023-05-21T15:41:04.595Z,3.68
2023-05-21T15:46:09.211Z,3.28
2023-05-21T15:51:14.852Z,3.27
2023-05-21T15:56:18.710Z,3.03
2023-05-21T16:01:23.556Z,3.06
2023-05-21T16:06:29.065Z,3.14
2023-05-21T16:11:36.280Z,3.17
2023-05-21T16:16:43.213Z,3.15
2023-05-21T16:21:51.161Z,3.14
2023-05-21T16:26:58.471Z,3.15
2023-05-21T16:32:02.410Z,3.25
2023-05-21T16:37:08.722Z,3.53
2023-05-21T16:42:14.996Z,4.14
2023-05-21T16:47:21.917Z,3.24
2023-05-21T16:52:30.820Z,3.20
2023-05-21T16:57:34.916Z,3.21
2023-05-21T17:02:42.360Z,3.22
2023-05-21T17:07:47.961Z,3.37
2023-05-21T17:12:54.378Z,9.73
2023-05-21T17:18:00.833Z,4.53
2023-05-21T17:23:08.466Z,4.07
2023-05-21T17:28:15.396Z,6.21
2023-05-21T17:33:22.639Z,5.79
2023-05-21T17:38:27.987Z,4.49
2023-05-21T17:43:33.081Z,6.33
2023-05-21T17:48:39.843Z,6.06
2023-05-21T17:53:49.450Z,4.31
2023-05-21T17:58:54.671Z,4.17
2023-05-21T18:04:01.786Z,4.25
2023-05-21T18:09:10.643Z,8.51
2023-05-21T18:14:19.732Z,7.61
2023-05-21T18:19:24.181Z,5.07
2023-05-21T18:24:32.028Z,5.28
2023-05-21T18:29:38.210Z,4.77
2023-05-21T18:34:43.430Z,4.77
2023-05-21T18:39:48.573Z,4.97
2023-05-21T18:44:52.933Z,5.02
2023-05-21T18:49:59.112Z,4.92
2023-05-21T18:55:05.604Z,6.17
2023-05-21T19:00:13.861Z,5.76
2023-05-21T19:05:22.634Z,5.87
2023-05-21T19:10:32.475Z,6.28
2023-05-21T19:15:40.080Z,9.72
2023-05-21T19:20:44.191Z,6.87
2023-05-21T19:25:51.922Z,6.13
2023-05-21T19:30:58.323Z,5.45
2023-05-21T19:36:04.686Z,5.94
2023-05-21T19:41:12.100Z,6.04
2023-05-21T19:46:18.286Z,6.11
2023-05-21T19:51:27.034Z,7.07
2023-05-21T19:56:32.481Z,13.42
2023-05-21T20:01:39.695Z,8.25
2023-05-21T20:06:45.884Z,7.23
2023-05-21T20:11:53.701Z,7.37
2023-05-21T20:16:59.696Z,6.88
2023-05-21T20:22:06.906Z,7.01
2023-05-21T20:27:14.939Z,7.66
2023-05-21T20:32:18.840Z,8.04
2023-05-21T20:37:26.244Z,7.89
2023-05-21T20:42:35.271Z,7.96
2023-05-21T20:47:42.631Z,7.83
2023-05-21T20:52:52.258Z,8.37
2023-05-21T20:57:57.766Z,9.15
2023-05-21T21:03:02.406Z,9.48
2023-05-21T21:08:08.353Z,9.92
2023-05-21T21:13:17.385Z,10.27
2023-05-21T21:18:21.238Z,10.97
2023-05-21T21:23:30.933Z,11.29
2023-05-21T21:28:37.442Z,10.91
2023-05-21T21:33:41.271Z,10.34
2023-05-21T21:38:47.437Z,10.77
2023-05-21T21:43:52.900Z,10.83
2023-05-21T21:49:08.221Z,10.82
2023-05-21T21:54:27.673Z,10.73
2023-05-21T21:59:49.398Z,10.45
2023-05-21T22:04:53.260Z,10.47
2023-05-21T22:10:02.489Z,10.89
2023-05-21T22:15:08.420Z,10.51
2023-05-21T22:20:13.698Z,10.26
2023-05-21T22:25:20.061Z,10.11
2023-05-21T22:30:25.411Z,9.95
2023-05-21T22:35:33.666Z,10.19
2023-05-21T22:40:38.231Z,10.02
2023-05-21T22:45:45.276Z,9.79
2023-05-21T22:50:53.681Z,9.93
2023-05-21T22:56:02.366Z,9.85
2023-05-21T23:01:07.630Z,9.83
2023-05-21T23:06:18.329Z,10.54
2023-05-21T23:11:28.362Z,10.37
2023-05-21T23:16:34.037Z,10.37
2023-05-21T23:21:40.106Z,10.14
2023-05-21T23:26:43.898Z,9.85
2023-05-21T23:31:51.823Z,9.95
2023-05-21T23:36:55.917Z,9.87
2023-05-21T23:42:00.464Z,9.75
2023-05-21T23:47:07.672Z,9.73
2023-05-21T23:52:13.091Z,9.81
2023-05-21T23:57:16.922Z,9.78
